Time;durP1;ratioP1;P1;durP2;ratioP2;P2;SDS_P1;SDS_P2;PMS_P1;PMS_P2;Temp;Humidity;BMP_temperature;BMP_pressure;BME280_temperature;BME280_humidity;BME280_pressure;Samples;Min_cycle;Max_cycle;Signal;HPM_P1;HPM_P2
2022/10/09 00:01:54;;;;;;;9.57;3.37;;;6.10;99.90;;;;;;4989244;28;20260;-82
2022/10/09 00:04:21;;;;;;;6.53;2.37;;;6.10;99.90;;;;;;4989510;28;20547;-83
2022/10/09 00:06:48;;;;;;;8.63;3.27;;;6.10;99.90;;;;;;5009044;28;20222;-83
2022/10/09 00:09:15;;;;;;;8.47;3.10;;;6.10;99.90;;;;;;5008849;28;20727;-83
2022/10/09 00:11:42;;;;;;;11.53;3.20;;;6.10;99.90;;;;;;5007298;28;20240;-83
2022/10/09 00:14:09;;;;;;;10.77;2.93;;;6.10;99.90;;;;;;5008253;28;20628;-82
2022/10/09 00:16:35;;;;;;;8.33;2.83;;;6.10;99.90;;;;;;5007525;28;20236;-83
2022/10/09 00:19:04;;;;;;;9.60;2.90;;;6.10;99.90;;;;;;5009157;28;20224;-83
2022/10/09 00:21:32;;;;;;;6.00;2.53;;;6.10;99.90;;;;;;5004757;28;20238;-83
2022/10/09 00:24:01;;;;;;;8.20;2.70;;;6.00;99.90;;;;;;5004970;28;20237;-82
2022/10/09 00:26:28;;;;;;;6.73;2.53;;;6.00;99.90;;;;;;5006817;28;20715;-83
2022/10/09 00:28:55;;;;;;;6.87;2.60;;;6.00;99.90;;;;;;5005208;28;20223;-83
2022/10/09 00:31:23;;;;;;;4.27;2.30;;;6.00;99.90;;;;;;5008469;28;20341;-83
2022/10/09 00:33:50;;;;;;;7.53;2.60;;;6.00;99.90;;;;;;5015522;28;20244;-83
2022/10/09 00:36:20;;;;;;;7.30;2.77;;;5.90;99.90;;;;;;5007112;28;20220;-84
2022/10/09 00:38:47;;;;;;;7.27;2.73;;;5.90;99.90;;;;;;5021319;28;20233;-84
2022/10/09 00:41:16;;;;;;;5.97;2.20;;;5.90;99.90;;;;;;5006866;28;20221;-83
2022/10/09 00:43:46;;;;;;;6.47;2.37;;;5.90;99.90;;;;;;5003108;28;20261;-84
2022/10/09 00:46:24;;;;;;;5.03;2.63;;;5.80;99.90;;;;;;5003026;28;20225;-83
2022/10/09 00:49:01;;;;;;;6.90;2.37;;;5.80;99.90;;;;;;5001093;28;20858;-84
2022/10/09 00:51:30;;;;;;;7.10;2.87;;;5.80;99.90;;;;;;5004429;28;20626;-83
2022/10/09 00:53:57;;;;;;;7.63;2.50;;;5.70;99.90;;;;;;5001186;28;20266;-83
2022/10/09 00:56:25;;;;;;;9.80;3.63;;;5.70;99.90;;;;;;5003098;28;20395;-83
2022/10/09 00:58:54;;;;;;;130.97;10.00;;;5.70;99.90;;;;;;5013853;28;20226;-83
2022/10/09 01:01:21;;;;;;;5.90;2.00;;;5.60;99.90;;;;;;4999984;28;20229;-81
2022/10/09 01:03:48;;;;;;;5.37;3.07;;;5.60;99.90;;;;;;4996519;28;20230;-82
2022/10/09 01:06:19;;;;;;;11.33;3.03;;;5.60;99.90;;;;;;4999918;28;20308;-80
2022/10/09 01:08:55;;;;;;;9.23;2.93;;;5.50;99.90;;;;;;5001546;28;20327;-79
2022/10/09 01:11:34;;;;;;;4.57;2.23;;;5.50;99.90;;;;;;5001622;28;20236;-80
2022/10/09 01:14:06;;;;;;;5.13;2.87;;;5.50;99.90;;;;;;4998440;28;20429;-80
2022/10/09 01:16:37;;;;;;;7.53;2.80;;;5.50;99.90;;;;;;5002627;28;20514;-80
2022/10/09 01:19:15;;;;;;;5.70;2.70;;;5.50;99.90;;;;;;5000911;28;20215;-79
2022/10/09 01:21:46;;;;;;;8.97;2.90;;;5.50;99.90;;;;;;4999542;28;20718;-80
2022/10/09 01:24:25;;;;;;;4.20;2.43;;;5.60;99.90;;;;;;5003847;28;20312;-80
2022/10/09 01:27:05;;;;;;;6.87;2.43;;;5.60;99.90;;;;;;5016704;28;20503;-80
2022/10/09 01:29:35;;;;;;;4.87;2.40;;;5.60;99.90;;;;;;5019098;28;20236;-79
2022/10/09 01:32:04;;;;;;;9.47;2.80;;;5.60;99.90;;;;;;4999826;28;20552;-80
2022/10/09 01:34:32;;;;;;;7.90;2.70;;;5.60;99.90;;;;;;4999680;28;20850;-80
2022/10/09 01:36:59;;;;;;;11.10;3.03;;;5.50;99.90;;;;;;5002038;28;20265;-81
2022/10/09 01:39:28;;;;;;;8.73;3.13;;;5.50;99.90;;;;;;5010594;28;20231;-81
2022/10/09 01:41:55;;;;;;;7.37;2.40;;;5.50;99.90;;;;;;5015697;28;20307;-81
2022/10/09 01:44:25;;;;;;;6.03;2.73;;;5.50;99.90;;;;;;4998486;28;20237;-80
2022/10/09 01:46:52;;;;;;;4.33;2.20;;;5.50;99.90;;;;;;5014715;28;20236;-81
2022/10/09 01:49:46;;;;;;;27.93;3.87;;;5.50;99.90;;;;;;5015428;28;20296;-81
2022/10/09 01:52:25;;;;;;;4.27;2.20;;;5.50;99.90;;;;;;5000528;28;20662;-81
2022/10/09 01:55:02;;;;;;;7.23;2.57;;;5.50;99.90;;;;;;5003848;28;20319;-80
2022/10/09 01:57:39;;;;;;;8.73;2.63;;;5.50;99.90;;;;;;5014517;28;20271;-83
2022/10/09 02:00:11;;;;;;;15.10;3.17;;;5.50;99.90;;;;;;4998062;28;20319;-82
2022/10/09 02:02:43;;;;;;;5.47;2.63;;;5.50;99.90;;;;;;5000692;28;20764;-82
2022/10/09 02:05:13;;;;;;;7.03;2.70;;;5.40;99.90;;;;;;4997049;28;20255;-81
2022/10/09 02:07:41;;;;;;;8.13;2.90;;;5.40;99.90;;;;;;5001492;28;20236;-81
2022/10/09 02:10:09;;;;;;;9.30;3.60;;;5.40;99.90;;;;;;5003230;28;20270;-80
2022/10/09 02:12:43;;;;;;;10.17;3.03;;;5.40;99.90;;;;;;5002454;28;20219;-79
2022/10/09 02:15:12;;;;;;;15.83;3.13;;;5.40;99.90;;;;;;4999722;28;20255;-80
2022/10/09 02:17:45;;;;;;;8.60;2.57;;;5.40;99.90;;;;;;5000021;28;20222;-79
2022/10/09 02:20:16;;;;;;;17.17;3.00;;;5.40;99.90;;;;;;5000130;28;20290;-80
2022/10/09 02:22:44;;;;;;;8.07;2.77;;;5.40;99.90;;;;;;5018795;28;20231;-80
2022/10/09 02:25:11;;;;;;;19.13;3.53;;;5.40;99.90;;;;;;5013474;28;20230;-80
2022/10/09 02:27:38;;;;;;;11.33;3.40;;;5.50;99.90;;;;;;4999937;28;20243;-80
2022/10/09 02:30:08;;;;;;;9.07;3.30;;;5.50;99.90;;;;;;5018291;28;20249;-81
2022/10/09 02:32:36;;;;;;;12.83;3.27;;;5.50;99.90;;;;;;5003022;28;20231;-81
2022/10/09 02:35:03;;;;;;;9.97;3.23;;;5.50;99.90;;;;;;5004556;28;20296;-82
2022/10/09 02:37:29;;;;;;;10.53;3.77;;;5.60;99.90;;;;;;5004610;28;20339;-82
2022/10/09 02:39:56;;;;;;;9.30;3.27;;;5.60;99.90;;;;;;5023889;28;20231;-82
2022/10/09 02:42:24;;;;;;;8.93;3.27;;;5.70;99.90;;;;;;5006601;28;20297;-81
2022/10/09 02:44:51;;;;;;;11.00;3.37;;;5.80;99.90;;;;;;5015161;28;20231;-81
2022/10/09 02:47:18;;;;;;;12.97;4.20;;;5.80;99.90;;;;;;5000984;28;20224;-80
2022/10/09 02:49:46;;;;;;;10.73;3.43;;;5.90;99.90;;;;;;5006195;28;20252;-82
2022/10/09 02:52:12;;;;;;;9.87;3.20;;;5.90;99.90;;;;;;5007593;28;20233;-82
2022/10/09 02:54:39;;;;;;;7.33;3.40;;;5.90;99.90;;;;;;5007098;28;21801;-82
2022/10/09 02:57:06;;;;;;;8.93;3.73;;;6.00;99.90;;;;;;5009231;28;20215;-81
2022/10/09 02:59:32;;;;;;;11.03;3.50;;;6.00;99.90;;;;;;5008545;28;20608;-81
2022/10/09 03:01:59;;;;;;;16.33;4.10;;;6.10;99.90;;;;;;5005738;28;20240;-81
2022/10/09 03:04:26;;;;;;;13.97;3.57;;;6.10;99.90;;;;;;5008577;28;20233;-81
2022/10/09 03:06:54;;;;;;;11.17;3.73;;;6.20;99.90;;;;;;5009473;28;20308;-81
2022/10/09 03:09:21;;;;;;;11.30;3.60;;;6.20;99.90;;;;;;5005524;28;20232;-81
2022/10/09 03:11:47;;;;;;;9.50;3.10;;;6.20;99.90;;;;;;5007078;28;20238;-82
2022/10/09 03:14:14;;;;;;;7.27;3.50;;;6.30;99.90;;;;;;5005616;28;20246;-82
2022/10/09 03:16:41;;;;;;;9.00;3.13;;;6.20;99.90;;;;;;5002093;28;20248;-81
2022/10/09 03:19:08;;;;;;;6.90;3.47;;;6.30;99.90;;;;;;5004826;28;20225;-80
2022/10/09 03:21:34;;;;;;;8.07;3.13;;;6.20;99.90;;;;;;5010800;28;20311;-82
2022/10/09 03:24:02;;;;;;;7.67;2.97;;;6.20;99.90;;;;;;5000865;28;20224;-80
2022/10/09 03:26:29;;;;;;;8.63;2.97;;;6.20;99.90;;;;;;5007932;28;20793;-81
2022/10/09 03:28:56;;;;;;;9.00;2.87;;;6.10;99.90;;;;;;5005528;28;20228;-80
2022/10/09 03:31:25;;;;;;;11.40;3.27;;;6.20;99.90;;;;;;5016994;28;20914;-81
2022/10/09 03:33:51;;;;;;;11.93;3.07;;;6.10;99.90;;;;;;5000447;28;20248;-82
2022/10/09 03:36:18;;;;;;;10.87;3.50;;;6.10;99.90;;;;;;5020146;28;20230;-82
2022/10/09 03:38:45;;;;;;;9.10;2.90;;;6.10;99.90;;;;;;5026093;28;20831;-81
2022/10/09 03:41:13;;;;;;;5.10;3.00;;;6.10;99.90;;;;;;5011981;28;20257;-81
2022/10/09 03:43:39;;;;;;;11.37;3.70;;;6.10;99.90;;;;;;5007699;28;20315;-81
2022/10/09 03:46:08;;;;;;;10.40;3.53;;;6.10;99.90;;;;;;5007413;28;20225;-81
2022/10/09 03:48:35;;;;;;;11.63;3.60;;;6.10;99.90;;;;;;5015375;28;20226;-82
2022/10/09 03:51:02;;;;;;;11.50;3.50;;;6.10;99.90;;;;;;5023590;28;20233;-82
2022/10/09 03:53:29;;;;;;;8.10;2.90;;;6.10;99.90;;;;;;5010423;28;20243;-80
2022/10/09 03:55:55;;;;;;;6.47;3.07;;;6.10;99.90;;;;;;5009614;28;20259;-80
2022/10/09 03:58:24;;;;;;;11.53;3.83;;;6.10;99.90;;;;;;5003275;28;20228;-80
2022/10/09 04:00:51;;;;;;;7.37;3.77;;;6.10;99.90;;;;;;4999329;28;20237;-81
2022/10/09 04:03:18;;;;;;;10.60;4.20;;;6.10;99.90;;;;;;5019031;28;20227;-81
2022/10/09 04:05:45;;;;;;;11.77;4.00;;;6.00;99.90;;;;;;5028530;28;20312;-82
2022/10/09 04:08:11;;;;;;;12.90;3.83;;;6.00;99.90;;;;;;5004169;28;20259;-81
2022/10/09 04:10:38;;;;;;;8.83;4.30;;;6.00;99.90;;;;;;5006782;28;21920;-79
2022/10/09 04:13:05;;;;;;;10.03;4.60;;;6.00;99.90;;;;;;5011460;28;20229;-80
2022/10/09 04:15:34;;;;;;;9.37;4.93;;;5.90;99.90;;;;;;5015603;28;20234;-82
2022/10/09 04:18:00;;;;;;;8.83;4.33;;;5.90;99.90;;;;;;5016167;28;20635;-79
2022/10/09 04:20:27;;;;;;;15.43;4.70;;;5.90;99.90;;;;;;5008825;28;20259;-80
2022/10/09 04:22:54;;;;;;;12.27;4.63;;;5.90;99.90;;;;;;5009921;28;20232;-80
2022/10/09 04:25:21;;;;;;;10.53;3.70;;;5.80;99.90;;;;;;5009109;28;20710;-80
2022/10/09 04:27:47;;;;;;;13.63;4.40;;;5.80;99.90;;;;;;4998407;28;20262;-80
2022/10/09 04:30:14;;;;;;;8.60;4.90;;;5.80;99.90;;;;;;5021795;28;20224;-80
2022/10/09 04:32:42;;;;;;;9.60;4.60;;;5.80;99.90;;;;;;5006346;28;20228;-78
2022/10/09 04:35:09;;;;;;;13.00;3.87;;;5.70;99.90;;;;;;5003770;28;20669;-81
2022/10/09 04:37:36;;;;;;;12.60;3.93;;;5.70;99.90;;;;;;5012890;28;20381;-80
2022/10/09 04:40:02;;;;;;;13.50;3.90;;;5.70;99.90;;;;;;5008243;28;20228;-83
2022/10/09 04:42:30;;;;;;;18.50;4.17;;;5.60;99.90;;;;;;5007337;28;20257;-81
2022/10/09 04:44:56;;;;;;;8.00;4.27;;;5.60;99.90;;;;;;5018269;28;20253;-82
2022/10/09 04:47:23;;;;;;;8.47;3.47;;;5.50;99.90;;;;;;5005629;28;20240;-81
2022/10/09 04:49:51;;;;;;;10.27;3.97;;;5.50;99.90;;;;;;5003371;28;20214;-82
2022/10/09 04:52:18;;;;;;;10.97;3.90;;;5.40;99.90;;;;;;4999487;28;20318;-81
2022/10/09 04:54:44;;;;;;;7.90;4.87;;;5.40;99.90;;;;;;5006307;28;20235;-81
2022/10/09 04:57:11;;;;;;;17.43;5.00;;;5.40;99.90;;;;;;5005237;28;20227;-82
2022/10/09 04:59:38;;;;;;;8.67;4.13;;;5.30;99.90;;;;;;5015825;28;20227;-82
2022/10/09 05:02:04;;;;;;;11.00;3.60;;;5.30;99.90;;;;;;5000624;28;20319;-81
2022/10/09 05:04:31;;;;;;;9.27;3.77;;;5.30;99.90;;;;;;5007736;28;20230;-81
2022/10/09 05:06:59;;;;;;;7.27;3.70;;;5.30;99.90;;;;;;5008745;28;20220;-81
2022/10/09 05:09:26;;;;;;;13.20;4.67;;;5.30;99.90;;;;;;5010147;28;20229;-81
2022/10/09 05:11:53;;;;;;;9.63;3.63;;;5.20;99.90;;;;;;5004287;28;20322;-82
2022/10/09 05:14:19;;;;;;;13.60;4.80;;;5.20;99.90;;;;;;5000082;28;21049;-83
2022/10/09 05:16:49;;;;;;;6.83;3.97;;;5.20;99.90;;;;;;5019541;28;20645;-83
2022/10/09 05:19:16;;;;;;;10.13;4.30;;;5.20;99.90;;;;;;5002399;28;20577;-83
2022/10/09 05:21:43;;;;;;;10.07;3.93;;;5.10;99.90;;;;;;5000884;28;20338;-83
2022/10/09 05:24:11;;;;;;;13.90;4.67;;;5.10;99.90;;;;;;5010664;28;20671;-83
2022/10/09 05:26:37;;;;;;;9.87;5.93;;;5.10;99.90;;;;;;5001433;28;20238;-80
2022/10/09 05:29:04;;;;;;;19.57;9.30;;;5.00;99.90;;;;;;5002556;28;20283;-82
2022/10/09 05:31:31;;;;;;;15.47;10.07;;;5.00;99.90;;;;;;4999055;28;22165;-83
2022/10/09 05:33:59;;;;;;;17.73;8.63;;;5.00;99.90;;;;;;5002247;28;20242;-82
2022/10/09 05:36:26;;;;;;;17.67;11.07;;;5.10;99.90;;;;;;5016546;28;20235;-83
2022/10/09 05:38:53;;;;;;;29.17;13.73;;;5.10;99.90;;;;;;5001958;28;20853;-82
2022/10/09 05:41:21;;;;;;;22.63;13.47;;;5.00;99.90;;;;;;5003738;28;20235;-82
2022/10/09 05:43:49;;;;;;;26.90;14.27;;;5.00;99.90;;;;;;5023678;28;20739;-83
2022/10/09 05:46:18;;;;;;;21.73;14.23;;;5.00;99.90;;;;;;5013417;28;20759;-83
2022/10/09 05:48:51;;;;;;;21.50;15.13;;;5.00;99.90;;;;;;5007500;28;20747;-84
2022/10/09 05:51:20;;;;;;;22.73;14.03;;;5.00;99.90;;;;;;5000729;28;20224;-83
2022/10/09 05:53:47;;;;;;;34.70;15.57;;;5.00;99.90;;;;;;5002566;28;20248;-83
2022/10/09 05:56:16;;;;;;;27.03;15.43;;;5.00;99.90;;;;;;5002776;28;20224;-83
2022/10/09 05:58:49;;;;;;;25.87;14.87;;;5.00;99.90;;;;;;5019943;28;20656;-82
2022/10/09 06:01:16;;;;;;;25.97;14.83;;;5.00;99.90;;;;;;5000612;28;20308;-81
2022/10/09 06:03:42;;;;;;;27.57;13.43;;;5.00;99.90;;;;;;5012598;28;20231;-82
2022/10/09 06:06:09;;;;;;;25.47;13.17;;;5.00;99.90;;;;;;5011420;28;20226;-84
2022/10/09 06:08:37;;;;;;;19.73;11.40;;;5.00;99.90;;;;;;5002878;28;20235;-85
2022/10/09 06:11:12;;;;;;;22.43;11.57;;;5.00;99.90;;;;;;5007103;28;20980;-84
2022/10/09 06:13:39;;;;;;;23.17;11.13;;;5.00;99.90;;;;;;5005801;28;20972;-85
2022/10/09 06:16:08;;;;;;;15.67;8.63;;;5.00;99.90;;;;;;5011156;28;20228;-84
2022/10/09 06:18:34;;;;;;;32.97;8.70;;;5.00;99.90;;;;;;5005645;28;20834;-85
2022/10/09 06:21:02;;;;;;;17.57;7.57;;;5.00;99.90;;;;;;5004737;28;20234;-84
2022/10/09 06:23:30;;;;;;;16.67;7.70;;;5.00;99.90;;;;;;5018189;28;20228;-85
2022/10/09 06:25:58;;;;;;;20.10;7.20;;;5.10;99.90;;;;;;5018716;28;20279;-85
2022/10/09 06:28:25;;;;;;;14.67;5.93;;;5.10;99.90;;;;;;5003657;28;20522;-85
2022/10/09 06:30:52;;;;;;;18.17;6.67;;;5.10;99.90;;;;;;5029808;28;20708;-85
2022/10/09 06:33:20;;;;;;;13.03;5.63;;;5.20;99.90;;;;;;5006010;28;20305;-85
2022/10/09 06:35:47;;;;;;;12.27;6.00;;;5.20;99.90;;;;;;5005842;28;20228;-85
2022/10/09 06:38:14;;;;;;;9.07;5.20;;;5.20;99.90;;;;;;5003661;28;20244;-85
2022/10/09 06:40:40;;;;;;;12.27;5.10;;;5.20;99.90;;;;;;5010287;28;20228;-85
2022/10/09 06:43:07;;;;;;;13.83;5.07;;;5.30;99.90;;;;;;5021608;28;20225;-85
2022/10/09 06:45:39;;;;;;;13.87;5.37;;;5.30;99.90;;;;;;5019709;28;20246;-85
2022/10/09 06:48:06;;;;;;;12.53;5.20;;;5.40;99.90;;;;;;5003652;28;20221;-85
2022/10/09 06:50:36;;;;;;;9.77;5.03;;;5.40;99.90;;;;;;5002724;28;20251;-85
2022/10/09 06:53:04;;;;;;;13.57;5.60;;;5.50;99.90;;;;;;5006904;28;20311;-84
2022/10/09 06:55:31;;;;;;;8.67;5.10;;;5.50;99.90;;;;;;5007643;28;20240;-84
2022/10/09 06:57:58;;;;;;;10.77;5.20;;;5.60;99.90;;;;;;5002597;28;20220;-85
2022/10/09 07:00:25;;;;;;;14.00;5.77;;;5.60;99.90;;;;;;5006899;28;22223;-85
2022/10/09 07:02:52;;;;;;;10.77;4.93;;;5.70;99.90;;;;;;5021364;28;20227;-84
2022/10/09 07:05:18;;;;;;;10.43;5.27;;;5.80;99.90;;;;;;5006419;28;20754;-84
2022/10/09 07:07:46;;;;;;;9.47;5.50;;;5.80;99.90;;;;;;5008664;28;21049;-84
2022/10/09 07:10:13;;;;;;;9.90;5.53;;;5.90;99.90;;;;;;5032226;28;20701;-85
2022/10/09 07:12:40;;;;;;;10.73;5.13;;;6.00;99.90;;;;;;5007224;28;20233;-85
2022/10/09 07:15:08;;;;;;;10.10;5.10;;;6.00;99.90;;;;;;5003742;28;20252;-85
2022/10/09 07:17:35;;;;;;;11.57;5.20;;;6.10;99.90;;;;;;5003869;28;20686;-86
2022/10/09 07:20:01;;;;;;;9.67;5.20;;;6.20;99.90;;;;;;5007963;28;20218;-85
2022/10/09 07:22:28;;;;;;;10.90;5.63;;;6.30;99.90;;;;;;5010518;28;20229;-84
2022/10/09 07:24:56;;;;;;;15.77;5.80;;;6.30;99.90;;;;;;5006948;28;20645;-85
2022/10/09 07:27:23;;;;;;;10.90;5.07;;;6.40;99.90;;;;;;5010113;28;20229;-87
2022/10/09 07:29:49;;;;;;;7.73;4.67;;;6.40;99.90;;;;;;5003403;28;20535;-85
2022/10/09 07:32:16;;;;;;;11.97;5.23;;;6.50;99.90;;;;;;5006402;28;20226;-85
2022/10/09 07:34:43;;;;;;;12.50;5.37;;;6.50;99.90;;;;;;5003865;28;20218;-85
2022/10/09 07:37:09;;;;;;;25.87;6.00;;;6.60;99.90;;;;;;5002449;28;20244;-83
2022/10/09 07:39:36;;;;;;;13.57;5.40;;;6.70;99.90;;;;;;5010318;28;20254;-85
2022/10/09 07:42:04;;;;;;;12.70;4.90;;;6.80;99.90;;;;;;4999959;28;20233;-82
2022/10/09 07:44:31;;;;;;;13.70;5.33;;;6.80;99.90;;;;;;5001077;28;20406;-83
2022/10/09 07:46:58;;;;;;;10.97;5.20;;;6.90;99.90;;;;;;5001004;28;20241;-81
2022/10/09 07:49:24;;;;;;;11.40;5.20;;;7.00;99.90;;;;;;4998570;28;20317;-85
2022/10/09 07:51:51;;;;;;;12.97;5.00;;;7.10;99.90;;;;;;5006476;28;20235;-82
2022/10/09 07:54:18;;;;;;;11.53;4.87;;;7.20;99.90;;;;;;5004156;28;20229;-83
2022/10/09 07:56:44;;;;;;;12.43;5.07;;;7.30;99.90;;;;;;5003481;28;20244;-84
2022/10/09 07:59:15;;;;;;;14.93;5.00;;;7.30;99.90;;;;;;5021133;28;20224;-83
2022/10/09 08:01:42;;;;;;;12.57;4.67;;;7.40;99.90;;;;;;5018562;28;20228;-84
2022/10/09 08:04:09;;;;;;;12.53;5.17;;;7.50;99.90;;;;;;5007917;28;20305;-84
2022/10/09 08:06:36;;;;;;;10.53;4.70;;;7.50;99.90;;;;;;5003841;28;20985;-84
2022/10/09 08:09:05;;;;;;;11.17;4.43;;;7.60;99.90;;;;;;5001852;28;20258;-83
2022/10/09 08:11:32;;;;;;;8.70;4.10;;;7.60;99.90;;;;;;4999267;28;20314;-79
2022/10/09 08:13:59;;;;;;;9.97;4.43;;;7.70;99.90;;;;;;4998392;28;20292;-81
2022/10/09 08:16:28;;;;;;;13.97;4.87;;;7.80;99.90;;;;;;5002940;28;20671;-79
2022/10/09 08:18:57;;;;;;;8.37;5.20;;;7.90;99.90;;;;;;5009355;28;20454;-82
2022/10/09 08:21:24;;;;;;;13.13;5.03;;;8.00;99.90;;;;;;5011191;28;20234;-81
2022/10/09 08:23:56;;;;;;;10.27;5.23;;;8.10;99.90;;;;;;5010765;28;20225;-83
2022/10/09 08:26:23;;;;;;;10.70;4.80;;;8.20;99.90;;;;;;5012752;28;20228;-80
2022/10/09 08:28:51;;;;;;;8.13;4.60;;;8.30;99.90;;;;;;5007169;28;20319;-80
2022/10/09 08:31:18;;;;;;;8.70;4.43;;;8.50;99.90;;;;;;5004954;28;20222;-81
2022/10/09 08:33:47;;;;;;;9.43;4.80;;;8.90;99.90;;;;;;5005570;28;20309;-80
2022/10/09 08:36:15;;;;;;;10.37;4.40;;;9.40;99.90;;;;;;5002394;28;20222;-81
2022/10/09 08:38:42;;;;;;;6.43;3.70;;;9.90;99.90;;;;;;5008114;28;20222;-80
2022/10/09 08:41:15;;;;;;;9.10;4.03;;;10.50;99.90;;;;;;5009721;28;20701;-82
2022/10/09 08:43:46;;;;;;;7.13;3.60;;;11.10;99.90;;;;;;5008155;28;20233;-81
2022/10/09 08:46:20;;;;;;;6.27;3.23;;;11.70;99.90;;;;;;5010186;28;20508;-81
2022/10/09 08:48:50;;;;;;;9.43;3.73;;;12.30;99.90;;;;;;5006430;28;20825;-81
2022/10/09 08:51:22;;;;;;;11.77;3.30;;;12.80;99.90;;;;;;5007367;28;20238;-83
2022/10/09 08:53:56;;;;;;;7.33;3.33;;;13.20;99.90;;;;;;5004038;28;20221;-81
2022/10/09 08:56:25;;;;;;;6.97;3.23;;;13.70;99.90;;;;;;5018818;28;20227;-81
2022/10/09 08:58:52;;;;;;;7.47;3.50;;;14.10;99.90;;;;;;5026030;28;20415;-81
2022/10/09 09:01:26;;;;;;;6.80;3.10;;;14.50;99.90;;;;;;5020542;28;20253;-81
2022/10/09 09:04:21;;;;;;;6.27;2.67;;;14.90;99.90;;;;;;5006199;28;20483;-81
2022/10/09 09:06:58;;;;;;;6.90;2.77;;;15.40;99.90;;;;;;5016356;28;20715;-81
2022/10/09 09:09:32;;;;;;;5.77;2.70;;;15.90;99.90;;;;;;5025007;28;20235;-81
2022/10/09 09:12:04;;;;;;;9.30;2.87;;;16.40;99.90;;;;;;5009066;28;20233;-81
2022/10/09 09:15:01;;;;;;;12.13;2.90;;;16.80;99.90;;;;;;5004227;28;20743;-81
2022/10/09 09:17:40;;;;;;;6.53;2.63;;;17.30;99.90;;;;;;5014497;28;20230;-80
2022/10/09 09:20:19;;;;;;;4.87;2.60;;;17.60;99.90;;;;;;5011770;28;20230;-81
2022/10/09 09:22:48;;;;;;;6.00;2.50;;;17.80;99.90;;;;;;5012163;28;20704;-82
2022/10/09 09:25:20;;;;;;;6.13;2.30;;;18.00;99.90;;;;;;5011929;28;20634;-81
2022/10/09 09:27:48;;;;;;;5.53;2.57;;;18.30;99.90;;;;;;5008053;28;20939;-81
2022/10/09 09:30:19;;;;;;;6.43;2.30;;;18.40;99.90;;;;;;5011552;28;20319;-82
2022/10/09 09:32:54;;;;;;;3.97;2.27;;;18.60;99.90;;;;;;5009922;28;20254;-80
2022/10/09 09:35:29;;;;;;;7.73;2.33;;;18.60;99.30;;;;;;5016266;28;20227;-81
2022/10/09 09:37:56;;;;;;;6.37;2.00;;;18.60;99.60;;;;;;5004884;28;20240;-81
2022/10/09 09:40:27;;;;;;;4.83;2.00;;;18.60;99.90;;;;;;5009782;28;20221;-80
2022/10/09 09:42:55;;;;;;;7.33;2.00;;;18.70;99.90;;;;;;5006041;28;20227;-81
2022/10/09 09:45:25;;;;;;;4.80;2.03;;;18.80;99.90;;;;;;5021259;28;20710;-81
2022/10/09 09:47:57;;;;;;;6.27;2.20;;;19.00;99.90;;;;;;5005279;28;20229;-81
2022/10/09 09:50:34;;;;;;;6.77;2.33;;;19.10;99.20;;;;;;5001639;28;20225;-82
2022/10/09 09:53:07;;;;;;;9.93;2.37;;;19.30;98.60;;;;;;4995630;28;20671;-81
2022/10/09 09:55:34;;;;;;;6.93;2.50;;;19.30;97.70;;;;;;5001361;28;20698;-81
2022/10/09 09:58:04;;;;;;;7.43;2.53;;;19.40;98.20;;;;;;4998840;28;20221;-82
2022/10/09 10:00:31;;;;;;;8.13;2.50;;;19.40;97.60;;;;;;4999881;28;20226;-80
2022/10/09 10:03:11;;;;;;;6.53;2.00;;;19.40;98.10;;;;;;4990740;28;20255;-81
2022/10/09 10:05:40;;;;;;;7.07;2.20;;;19.30;97.40;;;;;;5000532;28;20307;-81
2022/10/09 10:08:15;;;;;;;4.83;1.73;;;19.20;97.20;;;;;;5001781;28;20879;-80
2022/10/09 10:10:45;;;;;;;4.73;1.87;;;19.30;96.10;;;;;;5002085;28;23498;-80
2022/10/09 10:13:15;;;;;;;4.73;2.00;;;19.30;97.50;;;;;;5002716;28;20904;-80
2022/10/09 10:15:49;;;;;;;6.18;1.75;;;19.40;97.90;;;;;;5007404;28;20231;-80
2022/10/09 10:18:17;;;;;;;5.73;1.80;;;19.50;97.70;;;;;;4999644;28;20332;-80
2022/10/09 10:20:47;;;;;;;5.97;1.70;;;19.70;96.70;;;;;;5008625;28;20736;-80
2022/10/09 10:23:30;;;;;;;7.20;1.70;;;19.90;97.00;;;;;;5020595;28;20228;-80
2022/10/09 10:26:00;;;;;;;6.40;1.40;;;20.00;95.80;;;;;;5004646;28;20216;-81
2022/10/09 10:28:31;;;;;;;6.88;1.30;;;20.20;97.20;;;;;;5006711;28;20961;-80
2022/10/09 10:31:04;;;;;;;7.88;1.75;;;20.30;96.20;;;;;;5002325;28;20228;-81
2022/10/09 10:33:33;;;;;;;4.28;1.67;;;20.50;96.00;;;;;;5003980;28;20316;-81
2022/10/09 10:36:01;;;;;;;9.65;1.75;;;20.70;95.80;;;;;;4999819;28;20677;-80
2022/10/09 10:38:32;;;;;;;3.25;1.45;;;20.80;95.70;;;;;;5003972;28;20225;-81
2022/10/09 10:41:09;;;;;;;3.05;1.40;;;20.90;94.90;;;;;;4998392;28;20233;-83
2022/10/09 10:43:41;;;;;;;3.03;1.42;;;21.10;94.60;;;;;;4998018;28;20729;-83
2022/10/09 10:46:18;;;;;;;5.38;1.70;;;21.20;94.80;;;;;;5005206;28;20606;-83
2022/10/09 10:48:46;;;;;;;4.65;1.50;;;21.40;94.40;;;;;;5008013;28;20284;-84
2022/10/09 10:51:34;;;;;;;6.90;1.45;;;21.50;94.10;;;;;;5017771;28;20252;-83
2022/10/09 10:54:13;;;;;;;4.70;1.25;;;21.50;92.50;;;;;;5023509;28;20225;-84
2022/10/09 10:56:45;;;;;;;6.38;1.52;;;21.30;92.00;;;;;;5006739;28;20666;-85
2022/10/09 10:59:28;;;;;;;6.82;1.45;;;21.10;92.10;;;;;;5003834;28;20255;-84
2022/10/09 11:02:19;;;;;;;4.95;1.58;;;20.80;91.00;;;;;;5005320;28;20225;-83
2022/10/09 11:04:54;;;;;;;5.93;1.70;;;20.50;91.30;;;;;;5007404;28;20226;-84
2022/10/09 11:07:31;;;;;;;5.17;1.50;;;20.10;91.40;;;;;;5026652;28;20906;-83
2022/10/09 11:10:08;;;;;;;5.20;1.77;;;19.70;92.20;;;;;;5012477;28;20339;-84
2022/10/09 11:12:42;;;;;;;6.07;1.37;;;19.40;91.90;;;;;;5010872;28;20262;-83
2022/10/09 11:15:20;;;;;;;6.57;1.63;;;19.20;92.20;;;;;;5009647;28;20300;-83
2022/10/09 11:17:55;;;;;;;4.60;1.27;;;18.90;92.50;;;;;;5024685;28;20255;-83
2022/10/09 11:20:49;;;;;;;4.10;1.17;;;18.80;93.20;;;;;;5006713;28;20221;-85
2022/10/09 11:23:32;;;;;;;5.30;1.30;;;18.70;93.50;;;;;;4995402;28;20400;-84
2022/10/09 11:26:06;;;;;;;3.83;1.10;;;18.70;92.80;;;;;;5006620;28;20225;-84
2022/10/09 11:28:38;;;;;;;5.37;1.50;;;18.80;93.10;;;;;;5018421;28;20230;-84
2022/10/09 11:31:13;;;;;;;5.23;1.53;;;18.80;93.20;;;;;;5001569;28;20221;-84
2022/10/09 11:33:44;;;;;;;4.73;1.20;;;18.70;93.10;;;;;;5002539;28;20232;-84
2022/10/09 11:36:16;;;;;;;5.30;1.30;;;18.60;92.50;;;;;;5017855;28;20305;-84
2022/10/09 11:38:48;;;;;;;4.20;1.07;;;18.50;92.50;;;;;;5004501;28;20970;-85
2022/10/09 11:41:16;;;;;;;6.77;1.33;;;18.40;91.80;;;;;;5007049;28;20251;-84
2022/10/09 11:43:54;;;;;;;4.83;1.30;;;18.40;92.00;;;;;;5018628;28;20321;-84
2022/10/09 11:46:32;;;;;;;4.67;1.30;;;18.30;91.80;;;;;;5004988;28;20236;-84
2022/10/09 11:49:07;;;;;;;5.27;1.20;;;18.20;91.40;;;;;;5003317;28;20229;-84
2022/10/09 11:51:41;;;;;;;5.43;1.40;;;17.90;92.00;;;;;;5008322;28;20243;-85
2022/10/09 11:54:14;;;;;;;5.50;1.67;;;17.70;92.00;;;;;;5006176;28;20219;-84
2022/10/09 11:56:53;;;;;;;3.70;1.37;;;17.50;92.30;;;;;;5016407;28;20230;-84
2022/10/09 11:59:22;;;;;;;7.33;1.10;;;17.20;92.60;;;;;;5015540;28;20712;-85
2022/10/09 12:01:49;;;;;;;5.17;1.10;;;17.00;93.10;;;;;;4998119;28;20335;-84
2022/10/09 12:04:24;;;;;;;5.17;1.43;;;16.90;93.80;;;;;;4997708;28;20228;-84
2022/10/09 12:06:54;;;;;;;3.30;1.20;;;16.90;93.60;;;;;;5006886;28;20291;-84
2022/10/09 12:09:26;;;;;;;4.37;1.13;;;16.90;93.50;;;;;;5008600;28;20346;-85
2022/10/09 12:12:00;;;;;;;5.70;1.13;;;17.10;93.70;;;;;;5024336;28;20348;-84
2022/10/09 12:14:29;;;;;;;6.87;1.57;;;17.20;93.90;;;;;;5018460;28;20224;-84
2022/10/09 12:16:57;;;;;;;4.50;2.13;;;17.40;93.70;;;;;;5007339;28;20833;-84
2022/10/09 12:19:26;;;;;;;3.80;1.03;;;17.50;93.60;;;;;;5007513;28;20233;-84
2022/10/09 12:22:07;;;;;;;5.33;1.30;;;17.60;93.00;;;;;;5008373;28;20315;-84
2022/10/09 12:24:39;;;;;;;4.33;1.20;;;17.60;93.20;;;;;;5008588;28;20232;-84
2022/10/09 12:27:06;;;;;;;4.73;1.00;;;17.60;93.30;;;;;;5009690;28;20248;-84
2022/10/09 12:29:40;;;;;;;2.60;0.90;;;17.60;93.80;;;;;;5009660;28;20236;-84
2022/10/09 12:32:15;;;;;;;2.70;1.30;;;17.60;93.50;;;;;;5004084;28;20777;-84
2022/10/09 12:34:46;;;;;;;5.90;1.50;;;17.70;93.30;;;;;;5006690;28;20330;-84
2022/10/09 12:37:16;;;;;;;4.10;1.10;;;17.80;93.20;;;;;;5004394;28;20232;-84
2022/10/09 12:39:45;;;;;;;6.40;1.20;;;17.80;93.10;;;;;;5020784;28;20229;-87
2022/10/09 12:42:21;;;;;;;5.33;1.30;;;17.90;93.20;;;;;;4995206;28;20742;-86
2022/10/09 12:44:49;;;;;;;4.17;1.27;;;18.00;92.70;;;;;;5005179;28;20308;-84
2022/10/09 12:47:21;;;;;;;4.63;1.17;;;18.10;92.70;;;;;;5001635;28;20217;-82
2022/10/09 12:49:55;;;;;;;5.90;1.23;;;18.10;92.10;;;;;;5005193;28;20237;-82
2022/10/09 12:52:22;;;;;;;6.27;1.47;;;18.00;91.90;;;;;;5005908;28;20236;-81
2022/10/09 12:54:50;;;;;;;3.27;1.13;;;17.90;92.20;;;;;;5006425;28;20235;-80
2022/10/09 12:57:18;;;;;;;5.13;1.17;;;17.70;92.30;;;;;;5016429;28;20225;-81
2022/10/09 12:59:46;;;;;;;4.33;1.43;;;17.60;92.70;;;;;;5008619;28;20730;-82
2022/10/09 13:02:15;;;;;;;8.20;1.30;;;17.50;92.70;;;;;;5000249;28;20273;-82
2022/10/09 13:04:53;;;;;;;3.87;1.00;;;17.50;91.80;;;;;;5005339;28;20228;-83